CheckWX is a tool to help pilots better visualize weather data.  It is not intended as a substitute for an official pre-flight weather briefing.

07:14:25 UTC

PASC TAF
Deadhorse Airport
Deadhorse, Alaska, USA
PASC 260520Z 2606/2706 26008KT 6SM BR OVC040 FM260900 27007KT 6SM BR OVC035 FM261300 26007KT 6SM BR FEW035 BKN050 FM261800 26008KT 4SM BR BKN050 FM262100 26007KT 5SM BR SKC

Feb-26@
06:00 UTC

Feb-26 @ 06:00 UTC

Feb-26@
09:00 UTC

Feb-26 @ 09:00 UTC

PASC 260520Z 2606/2706 26008KT 6SM BR OVC040
Wind
  • 260° at 8 KTS
Conditions
Mist
Cloud Levels
  • Overcast at 4,000' AGL

Feb-26@
09:00 UTC

Feb-26 @ 09:00 UTC

Feb-26@
13:00 UTC

Feb-26 @ 13:00 UTC

FM260900 27007KT 6SM BR OVC035

From

From Standard forecast or significant change

Wind
  • 270° at 7 KTS
Conditions
Mist
Cloud Levels
  • Overcast at 3,500' AGL

Feb-26@
13:00 UTC

Feb-26 @ 13:00 UTC

Feb-26@
18:00 UTC

Feb-26 @ 18:00 UTC

FM261300 26007KT 6SM BR FEW035 BKN050

From

From Standard forecast or significant change

Wind
  • 260° at 7 KTS
Conditions
Mist
Cloud Levels
  • Few at 3,500' AGL
  • Broken at 5,000' AGL

Feb-26@
18:00 UTC

Feb-26 @ 18:00 UTC

Feb-26@
21:00 UTC

Feb-26 @ 21:00 UTC

FM261800 26008KT 4SM BR BKN050

From

From Standard forecast or significant change

Wind
  • 260° at 8 KTS
Conditions
Mist
Cloud Levels
  • Broken at 5,000' AGL

Feb-26@
21:00 UTC

Feb-26 @ 21:00 UTC

Feb-27@
06:00 UTC

Feb-27 @ 06:00 UTC

FM262100 26007KT 5SM BR SKC

From

From Standard forecast or significant change

Wind
  • 260° at 7 KTS
Conditions
Mist
Cloud Levels
  • Clear skies